Time;durP1;ratioP1;P1;durP2;ratioP2;P2;SDS_P1;SDS_P2;PMS_P1;PMS_P2;Temp;Humidity;BMP_temperature;BMP_pressure;BME280_temperature;BME280_humidity;BME280_pressure;Samples;Min_cycle;Max_cycle;Signal;HPM_P1;HPM_P2
2024/02/05 00:01:27;;;;;;;1.93;1.27;;;10.50;99.90;;;;;;5011218;28;20814;-80
2024/02/05 00:03:55;;;;;;;5.70;3.47;;;10.50;99.90;;;;;;5013197;28;20473;-79
2024/02/05 00:06:21;;;;;;;3.00;2.70;;;10.40;99.90;;;;;;5014988;28;20534;-79
2024/02/05 00:08:48;;;;;;;0.97;0.70;;;10.40;99.90;;;;;;5015350;28;20452;-78
2024/02/05 00:11:15;;;;;;;3.40;2.20;;;10.30;99.90;;;;;;5015467;28;20447;-79
2024/02/05 00:13:43;;;;;;;3.47;1.50;;;10.30;99.90;;;;;;5015274;28;20452;-79
2024/02/05 00:16:10;;;;;;;1.47;1.47;;;10.30;99.90;;;;;;5005816;28;20976;-78
2024/02/05 00:18:38;;;;;;;3.13;1.67;;;10.30;99.90;;;;;;5015345;28;20442;-78
2024/02/05 00:21:05;;;;;;;1.73;1.63;;;10.20;99.90;;;;;;5015126;28;20439;-78
2024/02/05 00:23:32;;;;;;;1.97;1.87;;;10.20;99.90;;;;;;5014706;28;20814;-79
2024/02/05 00:25:58;;;;;;;0.50;0.50;;;10.20;99.90;;;;;;5015841;28;20534;-78
2024/02/05 00:28:25;;;;;;;1.47;1.40;;;10.20;99.90;;;;;;5015351;28;20436;-79
2024/02/05 00:30:52;;;;;;;13.30;1.70;;;10.20;99.90;;;;;;5013785;28;20463;-79
2024/02/05 00:33:19;;;;;;;2.43;2.30;;;10.20;99.90;;;;;;5015534;28;20449;-79
2024/02/05 00:35:47;;;;;;;4.00;3.63;;;10.20;99.90;;;;;;5013394;28;20565;-77
2024/02/05 00:38:14;;;;;;;5.60;4.70;;;10.20;99.90;;;;;;5014561;28;20443;-79
2024/02/05 00:40:41;;;;;;;0.73;0.73;;;10.10;99.90;;;;;;5015078;28;20479;-79
2024/02/05 00:43:08;;;;;;;4.90;3.63;;;10.10;99.90;;;;;;5015126;28;20448;-80
2024/02/05 00:45:36;;;;;;;0.40;0.30;;;10.10;99.90;;;;;;5015810;28;20476;-79
2024/02/05 00:48:03;;;;;;;0.93;0.93;;;10.10;99.90;;;;;;5015534;28;20443;-79
2024/02/05 00:50:30;;;;;;;4.10;2.40;;;10.10;99.90;;;;;;5014830;28;20452;-79
2024/02/05 00:52:58;;;;;;;2.70;2.43;;;10.10;99.90;;;;;;5014528;28;20436;-79
2024/02/05 00:55:25;;;;;;;25.60;4.13;;;10.10;99.90;;;;;;5015514;28;20450;-77
2024/02/05 00:57:52;;;;;;;1.20;1.10;;;10.20;99.90;;;;;;5015857;28;20959;-79
2024/02/05 01:00:19;;;;;;;4.00;1.95;;;10.20;99.90;;;;;;5015256;28;20529;-79
2024/02/05 01:02:46;;;;;;;0.70;0.70;;;10.20;99.90;;;;;;5015017;28;20200;-80
2024/02/05 01:05:12;;;;;;;1.60;0.97;;;10.20;99.90;;;;;;5015439;28;20534;-77
2024/02/05 01:07:39;;;;;;;1.47;1.17;;;10.20;99.90;;;;;;5015346;28;20450;-79
2024/02/05 01:10:10;;;;;;;0.83;0.80;;;10.20;99.90;;;;;;5015342;28;20450;-79
2024/02/05 01:12:37;;;;;;;0.40;0.40;;;10.30;99.90;;;;;;5015166;28;20452;-79
2024/02/05 01:15:03;;;;;;;1.17;1.17;;;10.30;99.90;;;;;;5015100;28;20538;-80
2024/02/05 01:17:31;;;;;;;1.13;1.13;;;10.30;99.90;;;;;;5015291;28;20551;-79
2024/02/05 01:19:58;;;;;;;0.77;0.77;;;10.30;99.90;;;;;;5041291;22;21130;-80
2024/02/05 01:22:25;;;;;;;4.53;4.23;;;10.40;99.90;;;;;;4972941;28;20440;-81
2024/02/05 01:24:52;;;;;;;6.90;2.07;;;10.30;99.90;;;;;;4973630;28;20963;-81
2024/02/05 01:27:20;;;;;;;3.80;1.67;;;10.40;99.90;;;;;;4976760;28;20460;-82
2024/02/05 01:29:46;;;;;;;3.20;0.80;;;10.40;99.90;;;;;;4962624;28;20505;-82
2024/02/05 01:32:13;;;;;;;1.03;0.97;;;10.40;99.90;;;;;;4969710;28;20462;-80
2024/02/05 01:34:42;;;;;;;2.40;2.20;;;10.40;99.90;;;;;;4967975;28;20434;-79
2024/02/05 01:37:09;;;;;;;4.43;4.23;;;10.40;99.90;;;;;;4957192;28;20811;-80
2024/02/05 01:39:36;;;;;;;19.63;3.53;;;10.40;99.90;;;;;;4970224;28;20481;-80
2024/02/05 01:42:03;;;;;;;1.90;1.43;;;10.40;99.90;;;;;;4966554;28;20441;-79
2024/02/05 01:44:31;;;;;;;1.43;1.23;;;10.40;99.90;;;;;;4973173;28;20488;-79
2024/02/05 01:46:58;;;;;;;0.80;0.80;;;10.50;99.90;;;;;;4965585;28;21005;-80
2024/02/05 01:49:26;;;;;;;1.70;1.60;;;10.40;99.90;;;;;;4955028;28;20462;-79
2024/02/05 01:51:57;;;;;;;8.63;3.03;;;10.40;99.90;;;;;;4963569;28;20497;-79
2024/02/05 01:54:25;;;;;;;4.87;2.13;;;10.40;99.90;;;;;;4974490;28;20536;-80
2024/02/05 01:56:54;;;;;;;0.50;0.50;;;10.40;99.90;;;;;;4971704;28;20449;-79
2024/02/05 01:59:22;;;;;;;6.73;3.17;;;10.40;99.90;;;;;;4963680;28;20489;-81
2024/02/05 02:01:51;;;;;;;0.43;0.37;;;10.40;99.90;;;;;;4959048;28;20833;-81
2024/02/05 02:04:18;;;;;;;4.10;0.80;;;10.40;99.90;;;;;;4957572;28;20484;-81
2024/02/05 02:06:45;;;;;;;1.77;1.03;;;10.40;99.90;;;;;;4971185;28;20452;-80
2024/02/05 02:09:13;;;;;;;1.23;0.90;;;10.40;99.90;;;;;;4963542;28;20477;-80
2024/02/05 02:11:41;;;;;;;6.33;3.30;;;10.40;99.90;;;;;;4961200;28;20547;-80
2024/02/05 02:14:08;;;;;;;4.73;2.57;;;10.40;99.90;;;;;;4963754;28;20450;-79
2024/02/05 02:16:35;;;;;;;1.80;1.50;;;10.40;99.90;;;;;;4970222;28;20452;-80
2024/02/05 02:19:16;;;;;;;4.83;2.50;;;10.40;99.90;;;;;;4972983;28;20465;-79
2024/02/05 02:21:44;;;;;;;1.47;1.00;;;10.40;99.90;;;;;;4967236;28;20454;-80
2024/02/05 02:24:13;;;;;;;1.03;0.97;;;10.40;99.90;;;;;;4961703;28;20500;-82
2024/02/05 02:26:40;;;;;;;0.70;0.70;;;10.40;99.90;;;;;;4955388;28;20548;-79
2024/02/05 02:29:06;;;;;;;0.60;0.60;;;10.40;99.90;;;;;;4967684;28;20514;-80
2024/02/05 02:31:34;;;;;;;21.10;3.47;;;10.40;99.90;;;;;;4962252;28;20925;-81
2024/02/05 02:34:11;;;;;;;1.10;0.87;;;10.40;99.90;;;;;;4968986;28;20445;-80
2024/02/05 02:36:46;;;;;;;2.73;2.50;;;10.40;99.90;;;;;;4960807;28;20911;-79
2024/02/05 02:39:19;;;;;;;2.28;2.00;;;10.40;99.90;;;;;;4960288;28;20459;-79
2024/02/05 02:41:48;;;;;;;0.82;0.82;;;10.40;99.90;;;;;;4963956;28;20618;-79
2024/02/05 02:44:17;;;;;;;2.13;1.75;;;10.40;99.90;;;;;;4970673;28;20197;-79
2024/02/05 02:46:44;;;;;;;30.50;1.90;;;10.40;99.90;;;;;;4959062;28;20236;-81
2024/02/05 02:49:11;;;;;;;1.40;1.23;;;10.40;99.90;;;;;;4963549;28;20474;-79
2024/02/05 02:51:37;;;;;;;3.70;2.40;;;10.40;99.90;;;;;;4966247;28;20452;-80
2024/02/05 02:54:04;;;;;;;6.70;2.23;;;10.40;99.90;;;;;;4961866;28;20457;-80
2024/02/05 02:56:33;;;;;;;3.90;2.80;;;10.40;99.90;;;;;;4972769;28;20889;-78
2024/02/05 02:59:00;;;;;;;0.70;0.70;;;10.40;99.90;;;;;;4965128;28;20501;-79
2024/02/05 03:01:26;;;;;;;2.80;1.80;;;10.40;99.90;;;;;;4967763;28;20838;-79
2024/02/05 03:03:53;;;;;;;3.40;1.60;;;10.40;99.90;;;;;;4961419;28;20795;-79
2024/02/05 03:06:20;;;;;;;1.77;1.30;;;10.40;99.90;;;;;;4969485;28;20446;-79
2024/02/05 03:08:47;;;;;;;0.50;0.43;;;10.40;99.90;;;;;;4967682;28;20484;-80
2024/02/05 03:11:14;;;;;;;2.40;1.70;;;10.40;99.90;;;;;;4965083;28;20825;-80
2024/02/05 03:13:42;;;;;;;0.40;0.37;;;10.40;99.90;;;;;;4964066;28;20975;-81
2024/02/05 03:16:09;;;;;;;60.10;3.93;;;10.40;99.90;;;;;;4959600;28;20448;-81
2024/02/05 03:18:35;;;;;;;3.53;3.30;;;10.30;99.90;;;;;;4969749;28;20456;-82
2024/02/05 03:21:02;;;;;;;0.70;0.60;;;10.30;99.90;;;;;;4974538;28;20486;-81
2024/02/05 03:23:29;;;;;;;0.40;0.30;;;10.40;99.90;;;;;;4974370;28;20484;-82
2024/02/05 03:25:56;;;;;;;15.47;1.60;;;10.40;99.90;;;;;;4976576;28;20453;-81
2024/02/05 03:28:26;;;;;;;12.77;1.13;;;10.30;99.90;;;;;;4973467;28;20445;-81
2024/02/05 03:30:55;;;;;;;9.33;2.40;;;10.30;99.90;;;;;;4973784;28;20449;-81
2024/02/05 03:33:21;;;;;;;1.10;0.60;;;10.30;99.90;;;;;;4973148;28;20451;-82
2024/02/05 03:35:48;;;;;;;0.87;0.87;;;10.40;99.90;;;;;;4959478;28;20450;-82
2024/02/05 03:38:15;;;;;;;4.73;3.23;;;10.40;99.90;;;;;;4956212;28;20533;-79
2024/02/05 03:40:42;;;;;;;0.50;0.40;;;10.30;99.90;;;;;;4965703;28;20489;-81
2024/02/05 03:43:09;;;;;;;2.60;2.37;;;10.30;99.90;;;;;;4962244;28;20888;-81
2024/02/05 03:45:35;;;;;;;4.27;3.30;;;10.30;99.90;;;;;;4956527;28;20457;-81
2024/02/05 03:48:04;;;;;;;1.13;1.03;;;10.30;99.90;;;;;;4957326;28;20454;-79
2024/02/05 03:50:32;;;;;;;4.77;2.00;;;10.30;99.90;;;;;;4970163;28;20964;-79
2024/02/05 03:52:58;;;;;;;2.30;2.20;;;10.30;99.90;;;;;;4968367;28;20801;-81
2024/02/05 03:55:25;;;;;;;2.63;2.20;;;10.30;99.90;;;;;;4965066;28;20441;-80
2024/02/05 03:57:59;;;;;;;4.33;3.00;;;10.40;99.90;;;;;;4972643;28;20448;-81
2024/02/05 04:00:26;;;;;;;2.83;2.07;;;10.30;99.90;;;;;;4963529;28;20588;-80
2024/02/05 04:02:53;;;;;;;31.60;6.80;;;10.40;99.90;;;;;;4957180;28;20454;-79
2024/02/05 04:05:21;;;;;;;4.53;3.57;;;10.30;99.90;;;;;;4964470;28;20488;-78
2024/02/05 04:07:48;;;;;;;5.33;3.03;;;10.40;99.90;;;;;;4965166;28;20450;-80
2024/02/05 04:10:15;;;;;;;7.40;3.10;;;10.30;99.90;;;;;;4967109;28;20571;-79
2024/02/05 04:12:42;;;;;;;2.87;2.63;;;10.30;99.90;;;;;;4975323;28;20437;-81
2024/02/05 04:15:10;;;;;;;0.80;0.77;;;10.30;99.90;;;;;;4969045;28;20447;-80
2024/02/05 04:17:37;;;;;;;1.30;1.30;;;10.30;99.90;;;;;;4964717;28;20447;-80
2024/02/05 04:20:05;;;;;;;1.43;1.43;;;10.30;99.90;;;;;;4965187;28;20581;-80
2024/02/05 04:22:34;;;;;;;0.50;0.50;;;10.30;99.90;;;;;;4975747;28;20813;-79
2024/02/05 04:25:00;;;;;;;3.93;3.63;;;10.30;99.90;;;;;;4981697;28;20513;-80
2024/02/05 04:27:27;;;;;;;0.40;0.40;;;10.30;99.90;;;;;;4975639;28;20501;-81
2024/02/05 04:29:56;;;;;;;2.07;1.30;;;10.30;99.90;;;;;;4979827;28;20552;-81
2024/02/05 04:32:23;;;;;;;6.83;1.50;;;10.30;99.90;;;;;;4977208;28;20974;-82
2024/02/05 04:34:50;;;;;;;1.37;1.27;;;10.30;99.90;;;;;;4971016;28;20526;-80
2024/02/05 04:37:17;;;;;;;5.10;2.73;;;10.30;99.90;;;;;;4957642;28;20453;-81
2024/02/05 04:39:45;;;;;;;2.50;0.90;;;10.30;99.90;;;;;;4962323;28;20461;-80
2024/02/05 04:42:12;;;;;;;1.37;1.27;;;10.30;99.90;;;;;;4972593;28;20492;-80
2024/02/05 04:44:39;;;;;;;0.87;0.77;;;10.30;99.90;;;;;;4968584;28;20455;-80
2024/02/05 04:47:06;;;;;;;3.23;2.70;;;10.30;99.90;;;;;;4968214;28;20442;-80
2024/02/05 04:49:32;;;;;;;1.77;1.67;;;10.30;99.90;;;;;;4959210;28;20828;-78
2024/02/05 04:52:00;;;;;;;13.97;4.90;;;10.30;99.90;;;;;;4968752;28;20437;-79
2024/02/05 04:54:29;;;;;;;0.50;0.50;;;10.20;99.90;;;;;;4966503;28;20496;-79
2024/02/05 04:56:57;;;;;;;23.23;4.47;;;10.30;99.90;;;;;;4973996;28;20507;-80
2024/02/05 04:59:23;;;;;;;15.47;2.40;;;10.30;99.90;;;;;;4967125;28;20473;-80
2024/02/05 05:01:50;;;;;;;0.90;0.90;;;10.30;99.90;;;;;;4968498;28;20868;-79
2024/02/05 05:04:17;;;;;;;13.13;4.23;;;10.30;99.90;;;;;;4957225;28;20442;-79
2024/02/05 05:06:44;;;;;;;1.10;0.97;;;10.20;99.90;;;;;;4969905;28;20445;-80
2024/02/05 05:09:11;;;;;;;0.60;0.50;;;10.20;99.90;;;;;;4966768;28;20465;-80
2024/02/05 05:11:37;;;;;;;5.90;3.07;;;10.20;99.90;;;;;;4966830;28;20445;-80
2024/02/05 05:14:06;;;;;;;1.80;1.70;;;10.20;99.90;;;;;;4955964;28;20497;-81
2024/02/05 05:16:33;;;;;;;7.20;3.00;;;10.20;99.90;;;;;;4961539;28;20821;-81
2024/02/05 05:19:01;;;;;;;0.98;0.95;;;10.20;99.90;;;;;;4978489;28;20477;-79
2024/02/05 05:21:28;;;;;;;0.60;0.57;;;10.20;99.90;;;;;;4968547;28;20217;-81
2024/02/05 05:23:55;;;;;;;3.70;1.13;;;10.20;99.90;;;;;;4966708;28;20881;-80
2024/02/05 05:26:23;;;;;;;4.60;3.07;;;10.20;99.90;;;;;;4966424;28;20449;-80
2024/02/05 05:28:50;;;;;;;9.17;3.43;;;10.20;99.90;;;;;;4955965;28;20466;-81
2024/02/05 05:31:19;;;;;;;2.30;1.93;;;10.20;99.90;;;;;;4987483;28;20430;-79
2024/02/05 05:33:46;;;;;;;1.70;0.73;;;10.10;99.90;;;;;;4983255;28;20450;-81
2024/02/05 05:36:13;;;;;;;3.13;1.70;;;10.10;99.90;;;;;;4990154;28;20220;-78
2024/02/05 05:38:39;;;;;;;8.13;3.40;;;10.20;99.90;;;;;;4978906;28;20465;-80
2024/02/05 05:41:06;;;;;;;13.52;0.95;;;10.20;99.90;;;;;;4989243;28;20469;-80
2024/02/05 05:43:33;;;;;;;1.00;0.80;;;10.10;99.90;;;;;;4994757;28;20223;-80
2024/02/05 05:46:00;;;;;;;3.23;1.97;;;10.10;99.90;;;;;;4988781;28;20477;-80
2024/02/05 05:48:28;;;;;;;1.17;1.07;;;10.20;99.90;;;;;;4978778;28;20475;-81
2024/02/05 05:50:55;;;;;;;0.50;0.40;;;10.10;99.90;;;;;;4980955;28;20438;-81
2024/02/05 05:53:21;;;;;;;7.67;4.27;;;10.20;99.90;;;;;;4986548;28;20452;-79
2024/02/05 05:55:49;;;;;;;3.07;1.50;;;10.10;99.90;;;;;;4993082;28;20493;-82
2024/02/05 05:58:16;;;;;;;1.23;0.60;;;10.20;99.90;;;;;;4976929;28;20453;-82
2024/02/05 06:00:42;;;;;;;24.53;4.40;;;10.20;99.90;;;;;;4964388;28;20485;-82
2024/02/05 06:03:11;;;;;;;2.20;0.97;;;10.10;99.90;;;;;;4966284;28;20442;-81
2024/02/05 06:05:40;;;;;;;4.40;1.70;;;10.10;99.90;;;;;;4971319;28;20445;-84
2024/02/05 06:08:07;;;;;;;1.60;1.60;;;10.10;99.90;;;;;;4975768;28;20441;-83
2024/02/05 06:10:33;;;;;;;3.97;3.37;;;10.10;99.90;;;;;;4974911;28;20480;-81
2024/02/05 06:13:03;;;;;;;1.40;1.30;;;10.10;99.90;;;;;;4961520;28;20442;-82
2024/02/05 06:15:30;;;;;;;4.75;2.00;;;10.10;99.90;;;;;;4971184;28;20451;-83
2024/02/05 06:17:57;;;;;;;1.40;1.30;;;10.10;99.90;;;;;;4969703;28;20259;-82
2024/02/05 06:20:23;;;;;;;3.90;2.43;;;10.10;99.90;;;;;;4965518;28;20539;-86
2024/02/05 06:22:52;;;;;;;3.57;3.13;;;10.00;99.90;;;;;;4980129;28;20517;-84
2024/02/05 06:25:18;;;;;;;6.07;3.50;;;10.10;99.90;;;;;;4973299;28;20557;-82
2024/02/05 06:27:45;;;;;;;0.80;0.80;;;10.10;99.90;;;;;;4972575;28;20199;-83
2024/02/05 06:30:13;;;;;;;4.63;1.30;;;10.10;99.90;;;;;;4975339;28;20473;-83
2024/02/05 06:32:40;;;;;;;6.50;2.83;;;10.00;99.90;;;;;;4982352;28;20456;-81
2024/02/05 06:35:07;;;;;;;2.87;0.80;;;10.10;99.90;;;;;;4976999;28;20442;-83
2024/02/05 06:37:34;;;;;;;2.33;2.13;;;10.00;99.90;;;;;;4981173;28;20473;-83
2024/02/05 06:40:02;;;;;;;1.23;1.23;;;10.00;99.90;;;;;;4974812;28;20476;-83
2024/02/05 06:42:29;;;;;;;2.93;1.03;;;10.00;99.90;;;;;;4980083;28;20485;-84
2024/02/05 06:44:56;;;;;;;0.50;0.40;;;10.00;99.90;;;;;;4983819;28;20998;-82
2024/02/05 06:47:23;;;;;;;16.83;1.87;;;10.00;99.90;;;;;;4982401;28;20448;-84
2024/02/05 06:49:49;;;;;;;2.30;1.13;;;10.00;99.90;;;;;;4972034;28;21189;-83
2024/02/05 06:52:16;;;;;;;0.50;0.40;;;10.00;99.90;;;;;;4971221;28;20458;-83
2024/02/05 06:54:43;;;;;;;2.07;1.60;;;10.00;99.90;;;;;;4971822;28;20453;-84
2024/02/05 06:57:11;;;;;;;6.10;3.70;;;10.10;99.90;;;;;;4975283;28;20447;-83
2024/02/05 06:59:38;;;;;;;5.43;2.60;;;10.00;99.90;;;;;;4968582;28;20480;-83
2024/02/05 07:02:08;;;;;;;1.37;1.27;;;10.00;99.90;;;;;;4967192;28;21011;-84
2024/02/05 07:04:35;;;;;;;1.17;1.17;;;10.10;99.90;;;;;;4965506;28;20478;-81
2024/02/05 07:07:02;;;;;;;6.20;3.40;;;10.00;99.90;;;;;;4973434;28;20552;-84
2024/02/05 07:09:29;;;;;;;0.50;0.40;;;10.10;99.90;;;;;;4975886;28;21342;-86
2024/02/05 07:11:56;;;;;;;1.33;1.23;;;10.00;99.90;;;;;;4976749;28;20461;-84
2024/02/05 07:14:24;;;;;;;2.13;1.40;;;10.00;99.90;;;;;;4971644;28;20445;-84
2024/02/05 07:16:51;;;;;;;1.33;1.17;;;10.00;99.90;;;;;;4979667;28;20461;-84
2024/02/05 07:19:17;;;;;;;1.23;0.70;;;10.00;99.90;;;;;;4983174;28;20488;-85
2024/02/05 07:21:44;;;;;;;0.80;0.80;;;10.00;99.90;;;;;;4981004;28;20563;-84
2024/02/05 07:24:11;;;;;;;5.47;3.90;;;10.00;99.90;;;;;;4980580;28;20849;-85
2024/02/05 07:26:38;;;;;;;5.30;3.07;;;10.00;99.90;;;;;;4980091;28;20472;-83
2024/02/05 07:29:04;;;;;;;5.30;1.40;;;10.00;99.90;;;;;;4977813;28;20489;-85
2024/02/05 07:31:33;;;;;;;0.50;0.40;;;10.00;99.90;;;;;;4977419;28;20460;-83
2024/02/05 07:34:00;;;;;;;18.47;3.63;;;10.00;99.90;;;;;;4980084;28;20457;-85
2024/02/05 07:36:27;;;;;;;4.77;2.00;;;10.00;99.90;;;;;;4985566;28;20537;-84
2024/02/05 07:38:54;;;;;;;0.80;0.80;;;10.00;99.90;;;;;;4991696;28;20491;-86
2024/02/05 07:41:20;;;;;;;5.43;4.93;;;10.00;99.90;;;;;;4989602;28;20560;-84
2024/02/05 07:43:47;;;;;;;0.90;0.80;;;10.00;99.90;;;;;;4986199;28;20532;-86
2024/02/05 07:46:15;;;;;;;2.10;1.80;;;10.00;99.90;;;;;;4990534;28;20463;-85
2024/02/05 07:48:43;;;;;;;19.07;2.47;;;10.00;99.90;;;;;;4987903;28;20556;-85
2024/02/05 07:51:10;;;;;;;15.43;1.17;;;10.00;99.90;;;;;;4979669;28;20508;-84
2024/02/05 07:53:37;;;;;;;5.33;1.83;;;10.00;99.90;;;;;;4984496;28;20481;-83
2024/02/05 07:56:08;;;;;;;0.53;0.53;;;9.90;99.90;;;;;;5002787;28;20541;-83
2024/02/05 07:58:35;;;;;;;1.27;1.17;;;10.00;99.90;;;;;;4989350;28;20471;-83
2024/02/05 08:01:02;;;;;;;1.37;1.27;;;10.00;99.90;;;;;;4975897;28;20510;-84
2024/02/05 08:03:29;;;;;;;11.27;2.13;;;10.00;99.90;;;;;;4974163;28;20509;-84
2024/02/05 08:05:57;;;;;;;0.50;0.40;;;10.00;99.90;;;;;;4295211;28;10000690;-83
2024/02/05 08:08:24;;;;;;;0.80;0.80;;;10.00;99.90;;;;;;4980999;28;20569;-83
2024/02/05 08:10:51;;;;;;;0.77;0.77;;;10.00;99.90;;;;;;4975810;28;20529;-82
2024/02/05 08:13:18;;;;;;;3.07;1.37;;;10.00;99.90;;;;;;4970924;28;20453;-83
2024/02/05 08:15:44;;;;;;;0.95;0.85;;;9.90;99.90;;;;;;4967730;28;20500;-84
2024/02/05 08:18:11;;;;;;;9.52;1.58;;;9.90;99.90;;;;;;4958430;28;20218;-82
2024/02/05 08:20:38;;;;;;;5.50;1.90;;;9.90;99.90;;;;;;4975731;28;20226;-82
2024/02/05 08:23:07;;;;;;;0.60;0.60;;;10.00;99.90;;;;;;4977276;28;20539;-82
2024/02/05 08:25:34;;;;;;;8.60;3.70;;;10.00;99.90;;;;;;4959989;28;20201;-82
2024/02/05 08:28:02;;;;;;;0.50;0.40;;;10.00;99.90;;;;;;4967457;28;20510;-83
2024/02/05 08:30:29;;;;;;;9.82;2.85;;;10.00;99.90;;;;;;4967270;28;20473;-81
2024/02/05 08:32:56;;;;;;;3.23;2.93;;;10.00;99.90;;;;;;4975465;28;20209;-83
2024/02/05 08:35:23;;;;;;;9.60;2.20;;;10.00;99.90;;;;;;4977684;28;20482;-83
2024/02/05 08:37:49;;;;;;;1.50;0.90;;;10.00;99.90;;;;;;4978628;28;20468;-84
2024/02/05 08:40:17;;;;;;;0.70;0.70;;;10.00;99.90;;;;;;4976023;28;20766;-83
2024/02/05 08:42:44;;;;;;;4.73;2.97;;;10.00;99.90;;;;;;4976568;28;20484;-85
2024/02/05 08:45:11;;;;;;;10.40;2.30;;;10.00;99.90;;;;;;4979831;28;20495;-85
2024/02/05 08:47:38;;;;;;;5.33;3.23;;;10.00;99.90;;;;;;4978584;28;20458;-84
2024/02/05 08:50:06;;;;;;;6.20;3.27;;;10.00;99.90;;;;;;4978291;28;20496;-85
2024/02/05 08:52:33;;;;;;;4.80;4.30;;;10.00;99.90;;;;;;4977917;28;20453;-83
2024/02/05 08:55:00;;;;;;;2.20;1.60;;;10.00;99.90;;;;;;4977083;28;20817;-86
2024/02/05 08:57:28;;;;;;;1.57;0.90;;;10.00;99.90;;;;;;4976141;28;20476;-84
2024/02/05 08:59:55;;;;;;;1.35;0.90;;;10.10;99.90;;;;;;4974759;28;20491;-85
2024/02/05 09:02:22;;;;;;;27.47;2.50;;;10.10;99.90;;;;;;4980595;28;20225;-84
2024/02/05 09:04:48;;;;;;;1.17;1.07;;;10.10;99.90;;;;;;4976965;28;20457;-85
2024/02/05 09:07:16;;;;;;;0.70;0.50;;;10.10;99.90;;;;;;4976799;28;20484;-85
2024/02/05 09:09:43;;;;;;;1.37;0.77;;;10.10;99.90;;;;;;4977602;28;20476;-84
2024/02/05 09:12:10;;;;;;;1.13;1.03;;;10.20;99.90;;;;;;4982504;28;20457;-83
2024/02/05 09:14:39;;;;;;;6.43;2.30;;;10.20;99.90;;;;;;4976410;28;20442;-84
2024/02/05 09:17:06;;;;;;;2.50;1.80;;;10.10;99.90;;;;;;4981289;28;20535;-84
2024/02/05 09:19:34;;;;;;;29.47;1.83;;;10.30;99.90;;;;;;4978815;28;20549;-79
2024/02/05 09:22:00;;;;;;;6.93;1.87;;;10.30;99.90;;;;;;4968872;28;20477;-78
2024/02/05 09:24:27;;;;;;;3.10;2.70;;;10.30;99.90;;;;;;4979053;28;20457;-78
2024/02/05 09:26:54;;;;;;;6.00;1.70;;;10.40;99.90;;;;;;4978460;28;20445;-77
2024/02/05 09:29:22;;;;;;;0.60;0.40;;;10.30;99.90;;;;;;4977176;28;20480;-82
2024/02/05 09:31:50;;;;;;;2.13;1.13;;;10.40;99.90;;;;;;4977385;28;20437;-84
2024/02/05 09:34:17;;;;;;;17.33;2.40;;;10.50;99.90;;;;;;4977348;28;20436;-84
2024/02/05 09:36:44;;;;;;;2.10;2.00;;;10.50;99.90;;;;;;4980372;28;21009;-83
2024/02/05 09:39:11;;;;;;;3.23;2.37;;;10.60;99.90;;;;;;4979611;28;20484;-85
2024/02/05 09:41:40;;;;;;;2.00;1.07;;;10.60;99.90;;;;;;4976580;28;20441;-84
2024/02/05 09:44:08;;;;;;;1.37;1.13;;;10.60;99.90;;;;;;4978922;28;20552;-84
2024/02/05 09:46:35;;;;;;;0.97;0.97;;;10.50;99.90;;;;;;4984219;28;20551;-85
2024/02/05 09:49:05;;;;;;;2.10;1.70;;;10.50;99.90;;;;;;4978159;28;20471;-84
2024/02/05 09:51:33;;;;;;;4.30;2.33;;;10.60;99.90;;;;;;4978897;28;20440;-84
2024/02/05 09:54:03;;;;;;;4.50;1.77;;;10.60;99.90;;;;;;4980534;28;20544;-83
2024/02/05 09:56:30;;;;;;;3.87;2.70;;;10.60;99.90;;;;;;4979827;28;20442;-84
2024/02/05 09:58:57;;;;;;;5.40;2.20;;;10.60;99.90;;;;;;4978757;28;20473;-85
2024/02/05 10:01:26;;;;;;;6.80;2.10;;;10.70;99.90;;;;;;4977644;28;20433;-83
2024/02/05 10:03:54;;;;;;;12.07;1.80;;;10.80;99.90;;;;;;4976185;28;20499;-85
2024/02/05 10:06:25;;;;;;;2.40;0.93;;;10.70;99.90;;;;;;4989616;28;20471;-84
2024/02/05 10:08:57;;;;;;;1.53;1.17;;;10.70;99.90;;;;;;4976831;28;20492;-82
2024/02/05 10:11:26;;;;;;;10.23;2.93;;;10.80;99.90;;;;;;4976668;28;20509;-83
2024/02/05 10:13:53;;;;;;;1.53;1.43;;;10.80;99.90;;;;;;4977277;28;20445;-84
2024/02/05 10:16:20;;;;;;;10.97;2.97;;;10.70;99.90;;;;;;4977582;28;20480;-85
2024/02/05 10:18:46;;;;;;;9.93;4.33;;;10.80;99.90;;;;;;4982729;28;20516;-86
2024/02/05 10:21:13;;;;;;;2.87;1.67;;;10.80;99.90;;;;;;4976075;28;20551;-84
2024/02/05 10:23:43;;;;;;;1.13;1.13;;;10.70;99.90;;;;;;4975362;28;20480;-82
2024/02/05 10:26:13;;;;;;;1.53;1.43;;;10.70;99.90;;;;;;4977743;28;20465;-84
2024/02/05 10:28:39;;;;;;;3.03;2.00;;;10.60;99.90;;;;;;4978619;28;20529;-81
2024/02/05 10:31:10;;;;;;;3.83;1.93;;;10.60;99.90;;;;;;4970206;28;20455;-84
2024/02/05 10:33:38;;;;;;;2.47;1.23;;;10.60;99.90;;;;;;4977886;28;20448;-84
2024/02/05 10:36:05;;;;;;;5.27;1.87;;;10.60;99.90;;;;;;4981646;28;20465;-85
2024/02/05 10:38:36;;;;;;;12.03;4.30;;;10.60;99.90;;;;;;4986705;28;20460;-82
2024/02/05 10:41:05;;;;;;;8.07;4.43;;;10.70;99.90;;;;;;4988627;28;20437;-85
2024/02/05 10:43:33;;;;;;;6.60;3.13;;;10.80;99.90;;;;;;4986754;28;20528;-85
2024/02/05 10:45:59;;;;;;;3.03;1.83;;;10.90;99.90;;;;;;4983604;28;20472;-85
2024/02/05 10:48:26;;;;;;;1.43;1.23;;;10.80;99.90;;;;;;4979595;28;20544;-85
2024/02/05 10:50:54;;;;;;;1.67;1.37;;;10.80;99.90;;;;;;4978924;28;20469;-85
2024/02/05 10:53:21;;;;;;;2.00;1.77;;;10.90;99.90;;;;;;4978546;28;20448;-84
2024/02/05 10:55:50;;;;;;;1.40;1.00;;;10.90;99.90;;;;;;4977465;28;20567;-83
2024/02/05 10:58:21;;;;;;;1.53;1.23;;;10.80;99.90;;;;;;4980290;28;20948;-83
2024/02/05 11:00:48;;;;;;;1.50;1.40;;;10.80;99.90;;;;;;4976853;28;20885;-85
2024/02/05 11:03:20;;;;;;;8.53;1.63;;;10.80;99.90;;;;;;4977138;28;20491;-83
2024/02/05 11:05:52;;;;;;;1.43;0.87;;;11.00;99.90;;;;;;4977067;28;20449;-84
2024/02/05 11:08:22;;;;;;;4.83;1.57;;;11.00;99.90;;;;;;4980414;28;20492;-83
2024/02/05 11:10:51;;;;;;;3.77;2.20;;;11.10;99.90;;;;;;4983255;28;20464;-83
2024/02/05 11:13:22;;;;;;;3.80;2.23;;;11.10;99.90;;;;;;4978841;28;20438;-83
2024/02/05 11:15:52;;;;;;;1.50;1.40;;;11.00;99.90;;;;;;4980227;28;20948;-83
2024/02/05 11:18:26;;;;;;;4.37;2.30;;;10.90;99.90;;;;;;4980010;28;20437;-85
2024/02/05 11:20:55;;;;;;;3.27;2.07;;;11.00;99.90;;;;;;4983610;28;21203;-82
2024/02/05 11:23:24;;;;;;;1.07;0.80;;;11.10;99.90;;;;;;4980077;28;20556;-85
2024/02/05 11:25:52;;;;;;;0.50;0.50;;;11.00;99.90;;;;;;4979858;28;20441;-86
2024/02/05 11:28:21;;;;;;;0.70;0.63;;;11.00;99.90;;;;;;4980859;28;20453;-84
2024/02/05 11:30:48;;;;;;;2.50;2.33;;;11.10;99.90;;;;;;4986549;28;20553;-84
2024/02/05 11:33:25;;;;;;;4.27;3.17;;;11.20;99.90;;;;;;4971581;28;20529;-85
2024/02/05 11:35:52;;;;;;;0.80;0.80;;;11.30;99.90;;;;;;4977266;28;20445;-82
2024/02/05 11:38:21;;;;;;;1.63;1.13;;;11.30;99.90;;;;;;4983554;28;20463;-86
2024/02/05 11:40:50;;;;;;;0.90;0.73;;;11.30;99.90;;;;;;4979338;28;20826;-84
2024/02/05 11:43:23;;;;;;;3.03;0.70;;;11.30;99.90;;;;;;4979100;28;20481;-84
2024/02/05 11:45:50;;;;;;;2.00;1.87;;;11.30;99.90;;;;;;4978266;28;20445;-85
2024/02/05 11:48:19;;;;;;;0.60;0.50;;;11.40;99.90;;;;;;4983912;28;20461;-84
2024/02/05 11:50:46;;;;;;;3.00;1.73;;;11.40;99.90;;;;;;4979489;28;20461;-85
2024/02/05 11:53:14;;;;;;;8.10;2.20;;;11.40;99.90;;;;;;4970594;28;20452;-84
2024/02/05 11:55:41;;;;;;;1.93;1.43;;;11.40;99.90;;;;;;4978730;28;20476;-85
2024/02/05 11:58:07;;;;;;;0.70;0.70;;;11.30;99.90;;;;;;4979606;28;20464;-84
2024/02/05 12:00:36;;;;;;;1.70;1.07;;;11.30;99.90;;;;;;4981588;28;20976;-85
2024/02/05 12:03:02;;;;;;;0.50;0.40;;;11.20;99.90;;;;;;4978071;28;21033;-84
2024/02/05 12:05:29;;;;;;;8.63;2.40;;;11.20;99.90;;;;;;4979045;28;20453;-85
2024/02/05 12:07:56;;;;;;;3.37;0.97;;;11.20;99.90;;;;;;4976747;28;20536;-83
2024/02/05 12:10:24;;;;;;;0.50;0.40;;;11.40;99.90;;;;;;4985676;28;21027;-84
2024/02/05 12:12:53;;;;;;;0.70;0.57;;;11.70;99.90;;;;;;4978413;28;20440;-84
2024/02/05 12:15:22;;;;;;;2.87;2.67;;;12.10;99.90;;;;;;4978970;28;20457;-86
2024/02/05 12:17:50;;;;;;;1.97;1.43;;;11.90;99.90;;;;;;4978278;28;20809;-84
2024/02/05 12:20:19;;;;;;;2.83;0.93;;;11.90;99.90;;;;;;4978667;28;20497;-84
2024/02/05 12:22:47;;;;;;;10.87;2.10;;;11.50;99.90;;;;;;4981640;28;20480;-84
2024/02/05 12:25:15;;;;;;;1.60;1.10;;;11.30;99.90;;;;;;4977444;28;20448;-84
2024/02/05 12:27:42;;;;;;;2.97;2.77;;;11.20;99.90;;;;;;4979187;28;20449;-83
2024/02/05 12:30:10;;;;;;;1.63;1.53;;;11.30;99.90;;;;;;4976899;28;20479;-83
2024/02/05 12:32:37;;;;;;;3.17;2.53;;;11.20;99.90;;;;;;4978134;28;20465;-85
2024/02/05 12:35:06;;;;;;;4.97;2.63;;;11.20;99.90;;;;;;4977575;28;20444;-85
2024/02/05 12:37:32;;;;;;;1.80;1.67;;;11.10;99.90;;;;;;4979907;28;20469;-84
2024/02/05 12:39:59;;;;;;;2.40;1.07;;;11.00;99.90;;;;;;4976843;28;20556;-84
2024/02/05 12:42:27;;;;;;;3.47;3.17;;;11.00;99.90;;;;;;4976102;28;20512;-84
2024/02/05 12:44:54;;;;;;;3.33;0.90;;;11.20;99.90;;;;;;4975761;28;20464;-84
2024/02/05 12:47:21;;;;;;;1.30;1.20;;;11.40;99.90;;;;;;4977982;28;20542;-85